createdAt,value
2019-02-09T00:00:03.384Z,24.96
2019-02-09T00:01:02.392Z,24.78
2019-02-09T00:02:02.406Z,24.85
2019-02-09T00:03:02.521Z,24.88
2019-02-09T00:04:02.440Z,24.83
2019-02-09T00:05:02.454Z,24.88
2019-02-09T00:06:03.486Z,24.92
2019-02-09T00:07:02.490Z,25.00
2019-02-09T00:08:02.505Z,24.89
2019-02-09T00:09:02.553Z,24.98
2019-02-09T00:10:02.541Z,24.95
2019-02-09T00:11:02.631Z,25.00
2019-02-09T00:12:03.585Z,25.03
2019-02-09T00:13:02.595Z,25.00
2019-02-09T00:14:02.609Z,25.04
2019-02-09T00:15:02.631Z,25.08
2019-02-09T00:16:02.666Z,25.00
2019-02-09T00:17:02.682Z,25.10
2019-02-09T00:18:03.691Z,25.00
2019-02-09T00:19:03.712Z,25.13
2019-02-09T00:20:02.720Z,25.08
2019-02-09T00:21:02.727Z,25.14
2019-02-09T00:22:02.749Z,25.13
2019-02-09T00:23:02.765Z,25.26
2019-02-09T00:24:03.789Z,25.20
2019-02-09T00:25:02.800Z,25.18
2019-02-09T00:26:02.827Z,25.22
2019-02-09T00:27:02.837Z,25.14
2019-02-09T00:28:02.872Z,25.11
2019-02-09T00:29:02.867Z,25.10
2019-02-09T00:30:03.901Z,25.15
2019-02-09T00:31:02.903Z,25.19
2019-02-09T00:32:02.918Z,25.28
2019-02-09T00:33:02.950Z,25.30
2019-02-09T00:34:02.965Z,25.41
2019-02-09T00:35:02.978Z,25.28
2019-02-09T00:36:04.000Z,25.32
2019-02-09T00:37:03.007Z,25.33
2019-02-09T00:38:03.026Z,25.32
2019-02-09T00:39:03.048Z,25.29
2019-02-09T00:40:03.058Z,25.35
2019-02-09T00:41:03.073Z,25.45
2019-02-09T00:42:04.134Z,25.47
2019-02-09T00:43:03.114Z,25.51
2019-02-09T00:44:03.162Z,25.56
2019-02-09T00:45:03.146Z,25.53
2019-02-09T00:46:03.162Z,25.53
2019-02-09T00:47:03.187Z,25.65
2019-02-09T00:48:04.211Z,25.63
2019-02-09T00:49:03.221Z,25.51
2019-02-09T00:50:03.234Z,25.58
2019-02-09T00:51:03.252Z,25.53
2019-02-09T00:52:03.269Z,25.56
2019-02-09T00:53:03.284Z,25.53
2019-02-09T00:54:04.310Z,25.56
2019-02-09T00:55:03.324Z,25.55
2019-02-09T00:56:03.340Z,25.66
2019-02-09T00:57:03.351Z,25.62
2019-02-09T00:58:03.371Z,25.65
2019-02-09T00:59:03.389Z,25.75
2019-02-09T01:00:04.418Z,25.63
2019-02-09T01:01:03.425Z,25.73
2019-02-09T01:02:03.442Z,25.62
2019-02-09T01:03:03.465Z,25.60
2019-02-09T01:04:03.477Z,25.55
2019-02-09T01:05:03.503Z,25.47
2019-02-09T01:06:04.524Z,25.55
2019-02-09T01:07:03.541Z,25.66
2019-02-09T01:08:03.549Z,25.78
2019-02-09T01:09:03.573Z,25.80
2019-02-09T01:10:03.658Z,25.78
2019-02-09T01:11:03.607Z,25.82
2019-02-09T01:12:04.634Z,25.80
2019-02-09T01:13:03.633Z,25.90
2019-02-09T01:14:03.659Z,25.82
2019-02-09T01:15:03.677Z,25.84
2019-02-09T01:16:03.685Z,25.77
2019-02-09T01:17:03.709Z,25.80
2019-02-09T01:18:04.743Z,25.78
2019-02-09T01:19:03.744Z,25.77
2019-02-09T01:20:03.775Z,25.80
2019-02-09T01:21:03.779Z,25.78
2019-02-09T01:22:03.792Z,25.93
2019-02-09T01:23:03.812Z,25.97
2019-02-09T01:24:04.839Z,25.97
2019-02-09T01:25:03.848Z,25.99
2019-02-09T01:26:03.870Z,26.06
2019-02-09T01:27:03.881Z,26.03
2019-02-09T01:28:03.901Z,26.06
2019-02-09T01:29:03.917Z,25.93
2019-02-09T01:30:04.950Z,26.03
2019-02-09T01:31:03.953Z,26.00
2019-02-09T01:32:03.970Z,26.00
2019-02-09T01:33:03.987Z,26.02
2019-02-09T01:34:04.013Z,26.16
2019-02-09T01:35:04.035Z,26.16
2019-02-09T01:36:05.056Z,26.11
2019-02-09T01:37:04.067Z,26.15
2019-02-09T01:38:04.077Z,26.19
2019-02-09T01:39:04.093Z,26.20
2019-02-09T01:40:04.113Z,26.07
2019-02-09T01:41:04.134Z,26.02
2019-02-09T01:42:05.161Z,26.20
2019-02-09T01:43:04.170Z,26.23
2019-02-09T01:44:04.183Z,26.26
2019-02-09T01:45:04.208Z,26.28
2019-02-09T01:46:04.217Z,26.26
2019-02-09T01:47:04.242Z,26.31
2019-02-09T01:48:05.270Z,26.30
2019-02-09T01:49:04.277Z,26.25
2019-02-09T01:50:04.293Z,26.34
2019-02-09T01:51:04.311Z,26.31
2019-02-09T01:52:04.326Z,26.40
2019-02-09T01:53:04.349Z,26.34
2019-02-09T01:54:05.437Z,26.33
2019-02-09T01:55:04.381Z,26.38
2019-02-09T01:56:04.399Z,26.41
2019-02-09T01:57:04.420Z,26.40
2019-02-09T01:58:04.437Z,26.40
2019-02-09T01:59:04.454Z,26.38
2019-02-09T02:00:10.479Z,26.34
2019-02-09T02:01:04.491Z,26.26
2019-02-09T02:02:04.508Z,26.16
2019-02-09T02:03:04.531Z,26.15
2019-02-09T02:04:04.544Z,26.18
2019-02-09T02:05:04.565Z,26.26
2019-02-09T02:06:05.593Z,26.26
2019-02-09T02:07:04.594Z,26.35
2019-02-09T02:08:04.636Z,26.35
2019-02-09T02:09:04.637Z,26.53
2019-02-09T02:10:04.649Z,26.53
2019-02-09T02:11:04.676Z,26.52
2019-02-09T02:12:05.703Z,26.53
2019-02-09T02:13:04.706Z,26.56
2019-02-09T02:14:04.726Z,26.52
2019-02-09T02:15:04.747Z,26.57
2019-02-09T02:16:04.767Z,26.52
2019-02-09T02:17:04.780Z,26.57
2019-02-09T02:18:05.811Z,26.40
2019-02-09T02:19:04.815Z,26.48
2019-02-09T02:20:04.831Z,26.49
2019-02-09T02:21:04.945Z,26.50
2019-02-09T02:22:04.871Z,26.55
2019-02-09T02:23:04.886Z,26.60
2019-02-09T02:24:05.944Z,26.65
2019-02-09T02:25:04.919Z,26.52
2019-02-09T02:26:04.945Z,26.53
2019-02-09T02:27:04.959Z,26.55
2019-02-09T02:28:04.976Z,26.65
2019-02-09T02:29:04.993Z,26.62
2019-02-09T02:30:06.024Z,26.57
2019-02-09T02:31:05.033Z,26.63
2019-02-09T02:32:05.057Z,26.74
2019-02-09T02:33:05.067Z,26.72
2019-02-09T02:34:05.092Z,26.80
2019-02-09T02:35:05.111Z,26.71
2019-02-09T02:36:06.136Z,26.81
2019-02-09T02:37:05.145Z,26.70
2019-02-09T02:38:05.160Z,26.71
2019-02-09T02:39:05.179Z,26.70
2019-02-09T02:40:05.205Z,26.82
2019-02-09T02:41:05.214Z,26.85
2019-02-09T02:42:06.245Z,26.82
2019-02-09T02:43:05.257Z,26.93
2019-02-09T02:44:05.270Z,26.92
2019-02-09T02:45:05.290Z,26.96
2019-02-09T02:46:05.313Z,27.04
2019-02-09T02:47:05.322Z,26.97
2019-02-09T02:48:06.353Z,26.85
2019-02-09T02:49:05.363Z,26.90
2019-02-09T02:50:05.395Z,26.90
2019-02-09T02:51:05.400Z,26.99
2019-02-09T02:52:05.412Z,26.99
2019-02-09T02:53:05.450Z,27.00
2019-02-09T02:54:06.467Z,26.97
2019-02-09T02:55:05.473Z,26.99
2019-02-09T02:56:05.487Z,27.02
2019-02-09T02:57:05.511Z,27.07
2019-02-09T02:58:05.531Z,27.07
2019-02-09T02:59:05.544Z,27.14
2019-02-09T03:00:06.574Z,27.07
2019-02-09T03:01:05.581Z,27.12
2019-02-09T03:02:05.603Z,27.12
2019-02-09T03:03:05.619Z,27.22
2019-02-09T03:04:05.640Z,27.18
2019-02-09T03:05:05.655Z,27.22
2019-02-09T03:06:06.687Z,27.30
2019-02-09T03:07:05.694Z,27.34
2019-02-09T03:08:05.715Z,27.39
2019-02-09T03:09:05.737Z,27.42
2019-02-09T03:10:05.750Z,27.44
2019-02-09T03:11:05.766Z,27.48
2019-02-09T03:12:06.797Z,27.52
2019-02-09T03:13:05.809Z,27.52
2019-02-09T03:14:05.826Z,27.46
2019-02-09T03:15:05.847Z,27.52
2019-02-09T03:16:05.858Z,27.60
2019-02-09T03:17:05.883Z,27.58
2019-02-09T03:18:06.906Z,27.58
2019-02-09T03:19:05.917Z,27.61
2019-02-09T03:20:05.936Z,27.62
2019-02-09T03:21:05.954Z,27.55
2019-02-09T03:22:05.974Z,27.64
2019-02-09T03:23:05.994Z,27.62
2019-02-09T03:24:07.023Z,27.62
2019-02-09T03:25:06.045Z,27.65
2019-02-09T03:26:06.047Z,27.64
2019-02-09T03:27:06.067Z,27.61
2019-02-09T03:28:06.089Z,27.65
2019-02-09T03:29:06.099Z,27.67
2019-02-09T03:30:07.136Z,27.72
2019-02-09T03:31:06.140Z,27.77
2019-02-09T03:32:06.162Z,27.79
2019-02-09T03:33:06.183Z,27.75
2019-02-09T03:34:06.202Z,27.79
2019-02-09T03:35:06.217Z,27.83
2019-02-09T03:36:07.247Z,27.89
2019-02-09T03:37:06.272Z,27.90
2019-02-09T03:38:06.278Z,27.87
2019-02-09T03:39:06.294Z,27.86
2019-02-09T03:40:06.309Z,27.89
2019-02-09T03:41:06.332Z,27.89
2019-02-09T03:42:07.375Z,27.93
2019-02-09T03:43:06.378Z,27.89
2019-02-09T03:44:06.415Z,27.97
2019-02-09T03:45:06.408Z,28.01
2019-02-09T03:46:06.422Z,27.99
2019-02-09T03:47:06.443Z,27.98
2019-02-09T03:48:07.475Z,27.99
2019-02-09T03:49:06.485Z,28.04
2019-02-09T03:50:06.498Z,28.01
2019-02-09T03:51:06.526Z,28.08
2019-02-09T03:52:06.544Z,28.09
2019-02-09T03:53:06.562Z,28.14
2019-02-09T03:54:07.617Z,28.17
2019-02-09T03:55:06.598Z,28.11
2019-02-09T03:56:06.615Z,28.01
2019-02-09T03:57:06.633Z,27.98
2019-02-09T03:58:06.651Z,28.04
2019-02-09T03:59:06.673Z,28.01
2019-02-09T04:00:07.704Z,28.04
2019-02-09T04:01:06.712Z,28.09
2019-02-09T04:02:06.731Z,28.12
2019-02-09T04:03:06.745Z,28.08
2019-02-09T04:04:06.768Z,28.08
2019-02-09T04:05:06.803Z,27.97
2019-02-09T04:06:07.822Z,28.01
2019-02-09T04:07:06.828Z,28.07
2019-02-09T04:08:06.844Z,28.04
2019-02-09T04:09:06.864Z,28.05
2019-02-09T04:10:06.891Z,28.09
2019-02-09T04:11:06.906Z,28.07
2019-02-09T04:12:07.945Z,28.11
2019-02-09T04:13:06.941Z,28.07
2019-02-09T04:14:06.964Z,28.04
2019-02-09T04:15:06.994Z,28.05
2019-02-09T04:16:07.001Z,27.98
2019-02-09T04:17:06.924Z,28.05
2019-02-09T04:18:08.050Z,28.09
2019-02-09T04:19:07.060Z,28.07
2019-02-09T04:20:07.079Z,28.08
2019-02-09T04:21:07.097Z,28.23
2019-02-09T04:22:07.116Z,28.26
2019-02-09T04:23:07.139Z,28.38
2019-02-09T04:24:08.162Z,28.39
2019-02-09T04:25:07.174Z,28.42
2019-02-09T04:26:07.188Z,28.45
2019-02-09T04:27:07.214Z,28.51
2019-02-09T04:28:07.235Z,28.56
2019-02-09T04:29:07.250Z,28.60
2019-02-09T04:30:10.390Z,28.67
2019-02-09T04:31:07.309Z,28.49
2019-02-09T04:32:07.310Z,28.58
2019-02-09T04:33:07.328Z,28.38
2019-02-09T04:34:07.350Z,28.36
2019-02-09T04:35:07.387Z,28.29
2019-02-09T04:36:08.393Z,28.24
2019-02-09T04:37:07.407Z,28.22
2019-02-09T04:38:07.422Z,28.14
2019-02-09T04:39:07.439Z,28.08
2019-02-09T04:40:07.462Z,28.05
2019-02-09T04:41:07.481Z,28.07
2019-02-09T04:42:08.510Z,28.22
2019-02-09T04:43:07.528Z,28.26
2019-02-09T04:44:07.539Z,28.29
2019-02-09T04:45:07.625Z,28.34
2019-02-09T04:46:07.612Z,28.30
2019-02-09T04:47:07.595Z,28.30
2019-02-09T04:48:08.636Z,28.23
2019-02-09T04:49:07.648Z,28.27
2019-02-09T04:50:07.822Z,28.34
2019-02-09T04:51:07.680Z,28.27
2019-02-09T04:52:07.690Z,28.23
2019-02-09T04:53:07.715Z,28.23
2019-02-09T04:54:08.755Z,28.23
2019-02-09T04:55:07.755Z,28.22
2019-02-09T04:56:07.769Z,28.20
2019-02-09T04:57:07.795Z,28.19
2019-02-09T04:58:07.839Z,28.30
2019-02-09T04:59:07.827Z,28.29
2019-02-09T05:00:08.859Z,28.34
2019-02-09T05:01:13.860Z,28.34
2019-02-09T05:02:07.885Z,28.44
2019-02-09T05:03:08.229Z,28.38
2019-02-09T05:04:07.970Z,28.35
2019-02-09T05:05:07.960Z,28.32
2019-02-09T05:06:08.977Z,28.42
2019-02-09T05:07:08.026Z,28.48
2019-02-09T05:08:08.007Z,28.41
2019-02-09T05:09:08.033Z,28.54
2019-02-09T05:10:08.046Z,28.51
2019-02-09T05:11:08.065Z,28.46
2019-02-09T05:12:09.099Z,28.45
2019-02-09T05:13:08.102Z,28.51
2019-02-09T05:14:08.123Z,28.60
2019-02-09T05:15:08.145Z,28.66
2019-02-09T05:16:08.161Z,28.61
2019-02-09T05:17:08.181Z,28.64
2019-02-09T05:18:09.222Z,28.69
2019-02-09T05:19:08.217Z,28.72
2019-02-09T05:20:08.240Z,28.75
2019-02-09T05:21:08.261Z,28.73
2019-02-09T05:22:08.289Z,28.82
2019-02-09T05:23:08.313Z,28.82
2019-02-09T05:24:09.337Z,28.88
2019-02-09T05:25:08.342Z,28.90
2019-02-09T05:26:08.362Z,28.90
2019-02-09T05:27:08.378Z,28.90
2019-02-09T05:28:08.395Z,28.82
2019-02-09T05:29:08.415Z,28.82
2019-02-09T05:30:09.444Z,28.73
2019-02-09T05:31:08.460Z,28.69
2019-02-09T05:32:08.468Z,28.64
2019-02-09T05:33:08.492Z,28.64
2019-02-09T05:34:08.512Z,28.60
2019-02-09T05:35:08.532Z,28.48
2019-02-09T05:36:09.563Z,28.54
2019-02-09T05:37:08.572Z,28.58
2019-02-09T05:38:08.609Z,28.58
2019-02-09T05:39:08.617Z,28.61
2019-02-09T05:40:08.645Z,28.66
2019-02-09T05:41:08.649Z,28.67
2019-02-09T05:42:09.681Z,28.63
2019-02-09T05:43:08.695Z,28.57
2019-02-09T05:44:08.729Z,28.72
2019-02-09T05:45:08.727Z,28.76
2019-02-09T05:46:08.747Z,28.81
2019-02-09T05:47:08.789Z,28.83
2019-02-09T05:48:09.937Z,28.85
2019-02-09T05:49:08.803Z,28.90
2019-02-09T05:50:08.851Z,28.97
2019-02-09T05:51:08.847Z,28.91
2019-02-09T05:52:08.867Z,28.81
2019-02-09T05:53:08.886Z,28.79
2019-02-09T05:54:09.919Z,28.88
2019-02-09T05:55:08.927Z,28.81
2019-02-09T05:56:08.942Z,28.90
2019-02-09T05:57:08.969Z,28.95
2019-02-09T05:58:08.987Z,28.94
2019-02-09T05:59:09.007Z,29.10
2019-02-09T06:00:10.048Z,29.07
2019-02-09T06:01:09.045Z,29.09
2019-02-09T06:02:09.061Z,29.14
2019-02-09T06:03:09.089Z,29.11
2019-02-09T06:04:09.150Z,29.14
2019-02-09T06:05:09.124Z,29.13
2019-02-09T06:06:10.155Z,29.16
2019-02-09T06:07:09.171Z,29.09
2019-02-09T06:08:09.177Z,29.13
2019-02-09T06:09:09.258Z,29.17
2019-02-09T06:10:09.228Z,29.13
2019-02-09T06:11:09.248Z,29.13
2019-02-09T06:12:10.277Z,29.19
2019-02-09T06:13:09.281Z,29.10
2019-02-09T06:14:09.302Z,29.07
2019-02-09T06:15:09.350Z,29.04
2019-02-09T06:16:09.347Z,29.09
2019-02-09T06:17:09.359Z,29.07
2019-02-09T06:18:10.393Z,29.10
2019-02-09T06:19:09.400Z,29.11
2019-02-09T06:20:09.423Z,29.17
2019-02-09T06:21:09.440Z,29.13
2019-02-09T06:22:09.458Z,29.17
2019-02-09T06:23:09.480Z,29.09
2019-02-09T06:24:10.507Z,29.05
2019-02-09T06:25:09.517Z,28.97
2019-02-09T06:26:09.536Z,29.01
2019-02-09T06:27:09.562Z,28.94
2019-02-09T06:28:09.590Z,29.05
2019-02-09T06:29:09.601Z,29.13
2019-02-09T06:30:10.636Z,29.20
2019-02-09T06:31:09.635Z,29.16
2019-02-09T06:32:09.654Z,29.20
2019-02-09T06:33:09.675Z,29.11
2019-02-09T06:34:09.696Z,29.20
2019-02-09T06:35:09.717Z,29.13
2019-02-09T06:36:10.745Z,29.09
2019-02-09T06:37:09.761Z,28.98
2019-02-09T06:38:09.783Z,29.07
2019-02-09T06:39:09.819Z,29.09
2019-02-09T06:40:09.816Z,29.04
2019-02-09T06:41:09.845Z,28.95
2019-02-09T06:42:10.870Z,29.04
2019-02-09T06:43:09.879Z,28.94
2019-02-09T06:44:09.894Z,29.07
2019-02-09T06:45:09.919Z,29.11
2019-02-09T06:46:09.934Z,29.16
2019-02-09T06:47:09.955Z,29.20
2019-02-09T06:48:10.985Z,29.14
2019-02-09T06:49:09.995Z,29.19
2019-02-09T06:50:10.410Z,29.28
2019-02-09T06:51:11.228Z,29.13
2019-02-09T06:52:10.052Z,29.25
2019-02-09T06:53:10.078Z,29.19
2019-02-09T06:54:11.112Z,29.19
2019-02-09T06:55:10.116Z,29.31
2019-02-09T06:56:10.181Z,29.17
2019-02-09T06:57:10.165Z,29.28
2019-02-09T06:58:10.190Z,29.33
2019-02-09T06:59:10.193Z,29.31
2019-02-09T07:00:11.223Z,29.46
2019-02-09T07:01:10.286Z,29.41
2019-02-09T07:02:10.266Z,29.28
2019-02-09T07:03:10.274Z,29.38
2019-02-09T07:04:10.315Z,29.35
2019-02-09T07:05:10.316Z,29.42
2019-02-09T07:06:11.358Z,29.53
2019-02-09T07:07:10.369Z,29.55
2019-02-09T07:08:10.375Z,29.70
2019-02-09T07:09:10.401Z,29.68
2019-02-09T07:10:10.695Z,29.65
2019-02-09T07:11:10.815Z,29.68
2019-02-09T07:12:11.611Z,29.79
2019-02-09T07:13:10.474Z,29.81
2019-02-09T07:14:12.240Z,29.83
2019-02-09T07:15:10.510Z,29.84
2019-02-09T07:16:10.533Z,29.90
2019-02-09T07:17:10.834Z,29.92
2019-02-09T07:18:11.620Z,30.00
2019-02-09T07:19:10.595Z,30.06
2019-02-09T07:20:10.615Z,30.02
2019-02-09T07:21:10.638Z,30.10
2019-02-09T07:22:10.654Z,30.06
2019-02-09T07:23:10.675Z,30.06
2019-02-09T07:24:11.704Z,30.18
2019-02-09T07:25:10.732Z,30.25
2019-02-09T07:26:10.751Z,30.22
2019-02-09T07:27:10.753Z,30.03
2019-02-09T07:28:10.781Z,30.00
2019-02-09T07:29:10.796Z,30.07
2019-02-09T07:30:11.839Z,30.07
2019-02-09T07:31:11.039Z,30.02
2019-02-09T07:32:10.860Z,30.06
2019-02-09T07:33:10.899Z,30.12
2019-02-09T07:34:10.899Z,30.21
2019-02-09T07:35:10.919Z,30.12
2019-02-09T07:36:11.957Z,30.16
2019-02-09T07:37:10.960Z,30.14
2019-02-09T07:38:10.979Z,30.12
2019-02-09T07:39:11.010Z,29.99
2019-02-09T07:40:11.046Z,30.00
2019-02-09T07:41:17.600Z,30.03
2019-02-09T07:42:12.108Z,30.02
2019-02-09T07:43:11.088Z,30.16
2019-02-09T07:44:11.102Z,30.16
2019-02-09T07:45:11.123Z,30.06
2019-02-09T07:46:11.144Z,30.12
2019-02-09T07:47:11.161Z,30.13
2019-02-09T07:48:12.201Z,30.18
2019-02-09T07:49:11.208Z,30.14
2019-02-09T07:50:11.232Z,30.22
2019-02-09T07:51:11.247Z,30.10
2019-02-09T07:52:11.277Z,30.12
2019-02-09T07:53:11.298Z,30.14
2019-02-09T07:54:12.325Z,30.24
2019-02-09T07:55:11.338Z,30.20
2019-02-09T07:56:11.353Z,30.20
2019-02-09T07:57:11.377Z,30.18
2019-02-09T07:58:11.388Z,30.18
2019-02-09T07:59:11.411Z,30.13
2019-02-09T08:00:12.444Z,30.18
2019-02-09T08:01:11.458Z,30.31
2019-02-09T08:02:11.481Z,30.21
2019-02-09T08:03:11.495Z,30.13
2019-02-09T08:04:11.535Z,30.14
2019-02-09T08:05:11.535Z,30.12
2019-02-09T08:06:12.533Z,30.18
2019-02-09T08:07:11.581Z,30.13
2019-02-09T08:08:11.614Z,30.18
2019-02-09T08:09:11.639Z,30.10
2019-02-09T08:10:11.657Z,30.21
2019-02-09T08:11:11.669Z,30.25
2019-02-09T08:12:12.698Z,30.21
2019-02-09T08:13:11.704Z,30.16
2019-02-09T08:14:11.747Z,30.37
2019-02-09T08:15:11.742Z,30.43
2019-02-09T08:16:11.763Z,30.43
2019-02-09T08:17:11.782Z,30.59
2019-02-09T08:18:12.833Z,30.52
2019-02-09T08:19:11.829Z,30.60
2019-02-09T08:20:11.871Z,30.59
2019-02-09T08:21:11.878Z,30.54
2019-02-09T08:22:11.887Z,30.59
2019-02-09T08:23:11.913Z,30.59
2019-02-09T08:24:12.959Z,30.48
2019-02-09T08:25:11.955Z,30.56
2019-02-09T08:26:11.975Z,30.57
2019-02-09T08:27:11.990Z,30.50
2019-02-09T08:28:12.023Z,30.59
2019-02-09T08:29:12.045Z,30.45
2019-02-09T08:30:13.067Z,30.52
2019-02-09T08:31:12.075Z,30.56
2019-02-09T08:32:13.072Z,30.54
2019-02-09T08:33:12.112Z,30.51
2019-02-09T08:34:12.133Z,30.52
2019-02-09T08:35:12.170Z,30.57
2019-02-09T08:36:13.186Z,30.60
2019-02-09T08:37:12.194Z,30.43
2019-02-09T08:38:12.218Z,30.45
2019-02-09T08:39:12.253Z,30.63
2019-02-09T08:40:12.276Z,30.56
2019-02-09T08:41:12.286Z,30.54
2019-02-09T08:42:13.333Z,30.51
2019-02-09T08:43:12.325Z,30.57
2019-02-09T08:44:12.348Z,30.54
2019-02-09T08:45:12.369Z,30.47
2019-02-09T08:46:12.382Z,30.57
2019-02-09T08:47:12.427Z,30.52
2019-02-09T08:48:13.444Z,30.39
2019-02-09T08:49:12.450Z,30.36
2019-02-09T08:50:12.466Z,30.36
2019-02-09T08:51:12.488Z,30.44
2019-02-09T08:52:12.513Z,30.43
2019-02-09T08:53:12.539Z,30.43
2019-02-09T08:54:13.562Z,30.50
2019-02-09T08:55:12.572Z,30.50
2019-02-09T08:56:12.591Z,30.57
2019-02-09T08:57:12.632Z,30.54
2019-02-09T08:58:12.637Z,30.52
2019-02-09T08:59:12.673Z,30.37
2019-02-09T09:00:13.686Z,30.47
2019-02-09T09:01:12.710Z,30.48
2019-02-09T09:02:20.165Z,30.39
2019-02-09T09:03:12.750Z,30.40
2019-02-09T09:04:12.762Z,30.43
2019-02-09T09:05:12.806Z,30.51
2019-02-09T09:06:13.846Z,30.34
2019-02-09T09:07:12.833Z,30.39
2019-02-09T09:08:12.847Z,30.32
2019-02-09T09:09:13.550Z,30.39
2019-02-09T09:10:12.889Z,30.39
2019-02-09T09:11:12.909Z,30.39
2019-02-09T09:12:13.936Z,30.40
2019-02-09T09:13:12.950Z,30.40
2019-02-09T09:14:12.966Z,30.37
2019-02-09T09:15:12.991Z,30.39
2019-02-09T09:16:13.008Z,30.51
2019-02-09T09:17:13.035Z,30.43
2019-02-09T09:18:14.061Z,30.43
2019-02-09T09:19:13.071Z,30.45
2019-02-09T09:20:13.103Z,30.37
2019-02-09T09:21:13.113Z,30.43
2019-02-09T09:22:13.130Z,30.37
2019-02-09T09:23:13.155Z,30.37
2019-02-09T09:24:14.184Z,30.31
2019-02-09T09:25:13.192Z,30.22
2019-02-09T09:26:13.232Z,30.21
2019-02-09T09:27:13.236Z,30.36
2019-02-09T09:28:13.259Z,30.22
2019-02-09T09:29:13.279Z,30.21
2019-02-09T09:30:14.355Z,30.10
2019-02-09T09:31:13.320Z,30.07
2019-02-09T09:32:13.356Z,30.02
2019-02-09T09:33:13.370Z,30.06
2019-02-09T09:34:13.383Z,30.03
2019-02-09T09:35:13.413Z,30.10
2019-02-09T09:36:14.440Z,30.05
2019-02-09T09:37:13.459Z,30.09
2019-02-09T09:38:13.470Z,30.06
2019-02-09T09:39:13.494Z,30.06
2019-02-09T09:40:13.502Z,30.07
2019-02-09T09:41:13.564Z,30.16
2019-02-09T09:42:14.570Z,30.12
2019-02-09T09:43:14.165Z,30.21
2019-02-09T09:44:13.612Z,30.09
2019-02-09T09:45:13.607Z,30.16
2019-02-09T09:46:13.635Z,30.10
2019-02-09T09:47:13.656Z,30.03
2019-02-09T09:48:14.686Z,30.03
2019-02-09T09:49:14.005Z,29.97
2019-02-09T09:50:13.727Z,29.91
2019-02-09T09:51:13.730Z,29.90
2019-02-09T09:52:13.753Z,29.87
2019-02-09T09:53:13.787Z,29.87
2019-02-09T09:54:14.811Z,29.92
2019-02-09T09:55:13.812Z,29.92
2019-02-09T09:56:14.349Z,29.90
2019-02-09T09:57:13.881Z,29.84
2019-02-09T09:58:13.874Z,29.83
2019-02-09T09:59:13.899Z,29.78
2019-02-09T10:00:14.995Z,29.91
2019-02-09T10:01:13.967Z,29.88
2019-02-09T10:02:13.998Z,29.81
2019-02-09T10:03:14.037Z,29.81
2019-02-09T10:04:14.132Z,29.68
2019-02-09T10:05:14.022Z,29.66
2019-02-09T10:06:15.050Z,29.65
2019-02-09T10:07:14.062Z,29.66
2019-02-09T10:08:14.106Z,29.68
2019-02-09T10:09:14.108Z,29.68
2019-02-09T10:10:14.153Z,29.63
2019-02-09T10:11:14.150Z,29.53
2019-02-09T10:12:15.181Z,29.60
2019-02-09T10:13:14.212Z,29.57
2019-02-09T10:14:14.233Z,29.50
2019-02-09T10:15:14.227Z,29.42
2019-02-09T10:16:14.266Z,29.39
2019-02-09T10:17:14.270Z,29.26
2019-02-09T10:18:16.245Z,29.28
2019-02-09T10:19:14.314Z,29.35
2019-02-09T10:20:14.385Z,29.17
2019-02-09T10:21:14.348Z,29.23
2019-02-09T10:22:14.372Z,29.16
2019-02-09T10:23:14.390Z,29.02
2019-02-09T10:24:15.423Z,29.10
2019-02-09T10:25:14.423Z,28.97
2019-02-09T10:26:14.455Z,29.01
2019-02-09T10:27:14.472Z,28.91
2019-02-09T10:28:14.503Z,28.98
2019-02-09T10:29:14.501Z,28.94
2019-02-09T10:30:15.543Z,28.91
2019-02-09T10:31:14.545Z,28.98
2019-02-09T10:32:14.573Z,28.94
2019-02-09T10:33:14.585Z,28.90
2019-02-09T10:34:14.707Z,28.88
2019-02-09T10:35:14.633Z,28.90
2019-02-09T10:36:15.803Z,28.75
2019-02-09T10:37:14.673Z,28.75
2019-02-09T10:38:14.686Z,28.61
2019-02-09T10:39:14.703Z,28.51
2019-02-09T10:40:14.720Z,28.35
2019-02-09T10:41:14.793Z,28.36
2019-02-09T10:42:15.799Z,28.32
2019-02-09T10:43:14.786Z,28.34
2019-02-09T10:44:14.802Z,28.38
2019-02-09T10:45:14.830Z,28.27
2019-02-09T10:46:14.838Z,28.34
2019-02-09T10:47:14.876Z,28.34
2019-02-09T10:48:15.898Z,28.20
2019-02-09T10:49:14.908Z,28.19
2019-02-09T10:50:14.922Z,28.16
2019-02-09T10:51:14.941Z,28.07
2019-02-09T10:52:14.959Z,28.09
2019-02-09T10:53:14.989Z,28.11
2019-02-09T10:54:16.017Z,28.08
2019-02-09T10:55:15.023Z,28.08
2019-02-09T10:56:15.039Z,27.95
2019-02-09T10:57:15.092Z,28.02
2019-02-09T10:58:15.077Z,28.08
2019-02-09T10:59:15.095Z,28.02
2019-02-09T11:00:16.141Z,27.90
2019-02-09T11:01:15.140Z,27.97
2019-02-09T11:02:15.164Z,27.95
2019-02-09T11:03:15.175Z,27.93
2019-02-09T11:04:15.186Z,27.93
2019-02-09T11:05:15.205Z,28.01
2019-02-09T11:06:16.240Z,27.95
2019-02-09T11:07:15.414Z,27.92
2019-02-09T11:08:15.265Z,27.77
2019-02-09T11:09:15.282Z,27.79
2019-02-09T11:10:15.321Z,27.64
2019-02-09T11:11:15.332Z,27.65
2019-02-09T11:12:16.357Z,27.71
2019-02-09T11:13:15.358Z,27.74
2019-02-09T11:14:15.389Z,27.74
2019-02-09T11:15:15.408Z,27.72
2019-02-09T11:16:15.421Z,27.74
2019-02-09T11:17:15.438Z,27.72
2019-02-09T11:18:16.474Z,27.79
2019-02-09T11:19:15.480Z,27.71
2019-02-09T11:20:15.491Z,27.75
2019-02-09T11:21:15.516Z,27.70
2019-02-09T11:22:15.679Z,27.77
2019-02-09T11:23:15.555Z,27.70
2019-02-09T11:24:16.586Z,27.60
2019-02-09T11:25:15.602Z,27.58
2019-02-09T11:26:15.623Z,27.52
2019-02-09T11:27:15.627Z,27.49
2019-02-09T11:28:15.650Z,27.67
2019-02-09T11:29:15.670Z,27.55
2019-02-09T11:30:16.697Z,27.62
2019-02-09T11:31:15.709Z,27.48
2019-02-09T11:32:15.720Z,27.46
2019-02-09T11:33:15.744Z,27.41
2019-02-09T11:34:15.755Z,27.36
2019-02-09T11:35:15.778Z,27.32
2019-02-09T11:36:16.808Z,27.46
2019-02-09T11:37:15.837Z,27.36
2019-02-09T11:38:17.131Z,27.44
2019-02-09T11:39:15.928Z,27.45
2019-02-09T11:40:15.881Z,27.51
2019-02-09T11:41:15.891Z,27.51
2019-02-09T11:42:17.654Z,27.44
2019-02-09T11:43:15.943Z,27.48
2019-02-09T11:44:16.169Z,27.48
2019-02-09T11:45:15.971Z,27.51
2019-02-09T11:46:15.997Z,27.45
2019-02-09T11:47:16.007Z,27.52
2019-02-09T11:48:17.038Z,27.42
2019-02-09T11:49:16.833Z,27.36
2019-02-09T11:50:16.064Z,27.19
2019-02-09T11:51:16.075Z,27.19
2019-02-09T11:52:16.103Z,27.08
2019-02-09T11:53:16.118Z,27.11
2019-02-09T11:54:18.068Z,27.17
2019-02-09T11:55:16.185Z,27.18
2019-02-09T11:56:16.174Z,27.17
2019-02-09T11:57:16.209Z,27.15
2019-02-09T11:58:16.352Z,27.24
2019-02-09T11:59:16.228Z,27.22
2019-02-09T12:00:17.261Z,27.26
2019-02-09T12:01:16.625Z,27.14
2019-02-09T12:02:16.292Z,27.24
2019-02-09T12:03:16.509Z,27.22
2019-02-09T12:04:16.323Z,27.18
2019-02-09T12:05:16.336Z,27.17
2019-02-09T12:06:17.365Z,27.19
2019-02-09T12:07:16.383Z,27.18
2019-02-09T12:08:16.396Z,27.22
2019-02-09T12:09:16.414Z,27.17
2019-02-09T12:10:16.431Z,27.29
2019-02-09T12:11:16.488Z,27.18
2019-02-09T12:12:17.479Z,27.18
2019-02-09T12:13:16.491Z,27.12
2019-02-09T12:14:16.503Z,27.11
2019-02-09T12:15:16.529Z,27.15
2019-02-09T12:16:16.547Z,27.23
2019-02-09T12:17:16.573Z,27.19
2019-02-09T12:18:17.596Z,27.22
2019-02-09T12:19:16.599Z,27.23
2019-02-09T12:20:16.537Z,27.24
2019-02-09T12:21:16.637Z,27.12
2019-02-09T12:22:16.654Z,27.12
2019-02-09T12:23:17.363Z,27.07
2019-02-09T12:24:17.703Z,27.09
2019-02-09T12:25:16.750Z,27.12
2019-02-09T12:26:16.737Z,27.14
2019-02-09T12:27:16.746Z,27.05
2019-02-09T12:28:16.771Z,27.05
2019-02-09T12:29:16.785Z,27.09
2019-02-09T12:30:17.810Z,27.07
2019-02-09T12:31:16.819Z,27.05
2019-02-09T12:32:16.841Z,27.02
2019-02-09T12:33:22.748Z,27.02
2019-02-09T12:34:16.894Z,27.05
2019-02-09T12:35:16.899Z,27.08
2019-02-09T12:36:17.946Z,27.07
2019-02-09T12:37:16.937Z,27.07
2019-02-09T12:38:16.952Z,27.05
2019-02-09T12:39:16.979Z,27.08
2019-02-09T12:40:16.984Z,27.09
2019-02-09T12:41:17.003Z,27.05
2019-02-09T12:42:18.077Z,27.11
2019-02-09T12:43:17.040Z,26.93
2019-02-09T12:44:17.074Z,26.99
2019-02-09T12:45:17.099Z,27.02
2019-02-09T12:46:17.100Z,27.02
2019-02-09T12:47:17.114Z,26.95
2019-02-09T12:48:18.155Z,26.99
2019-02-09T12:49:17.150Z,26.95
2019-02-09T12:50:17.170Z,26.99
2019-02-09T12:51:17.188Z,27.07
2019-02-09T12:52:17.209Z,27.00